Ebetsu, Japan
Current Conditions -  °F | °C
As of 9:30 PM on Thursday 23 Oct 2014 (Local Time) from RJCC Reporting Station
Few Clouds Few Clouds  
Wind Chill: 35°   Ceiling: Unl
Heat Index: 39°   Visibility: 6mi
Dew Point: 34°   Wind: 6mph
Humidity: 81%   Direction: 160°SSE
Pressure: 30.15"   Gusts: NA
Location:  43.12°N, 141.55°E
Report Text: RJCC 231230Z 16005KT 9999 FEW030 04/01 Q1021
Loading
Personal Weather Stations






























Interactive Weather Map
Tropical Storm Tracking
New forecast layout! Learn more

10-Day Weather Forecast

Advertisements
Track Severe Weather on mobile